createdAt,value
2018-01-16T00:01:20.866Z,82.50
2018-01-16T00:03:49.208Z,81.40
2018-01-16T00:06:17.171Z,81.60
2018-01-16T00:08:44.795Z,81.20
2018-01-16T00:11:13.106Z,81.50
2018-01-16T00:13:40.727Z,81.40
2018-01-16T00:16:08.284Z,82.40
2018-01-16T00:18:36.702Z,82.30
2018-01-16T00:24:18.129Z,81.80
2018-01-16T00:26:46.500Z,82.70
2018-01-16T00:29:14.052Z,82.90
2018-01-16T00:31:41.609Z,83.10
2018-01-16T00:34:09.268Z,83.40
2018-01-16T00:36:37.620Z,82.90
2018-01-16T00:39:16.578Z,82.90
2018-01-16T00:41:44.141Z,83.20
2018-01-16T00:44:11.766Z,82.20
2018-01-16T00:46:39.316Z,82.40
2018-01-16T00:49:07.047Z,82.50
2018-01-16T00:51:34.609Z,83.00
2018-01-16T00:54:02.184Z,82.80
2018-01-16T00:56:29.853Z,84.00
2018-01-16T00:58:57.462Z,84.60
2018-01-16T01:01:25.776Z,85.50
2018-01-16T01:03:53.510Z,85.40
2018-01-16T01:06:24.284Z,86.40
2018-01-16T01:08:51.845Z,86.40
2018-01-16T01:11:19.418Z,86.60
2018-01-16T01:13:47.716Z,87.00
2018-01-16T01:16:15.297Z,86.90
2018-01-16T01:18:43.631Z,86.90
2018-01-16T01:21:11.221Z,86.90
2018-01-16T01:23:39.560Z,86.70
2018-01-16T01:26:07.109Z,86.70
2018-01-16T01:28:34.682Z,86.70
2018-01-16T01:31:20.713Z,86.50
2018-01-16T01:33:48.285Z,86.40
2018-01-16T01:36:15.837Z,86.80
2018-01-16T01:38:43.404Z,86.70
2018-01-16T01:41:11.066Z,86.20
2018-01-16T01:43:38.619Z,86.10
2018-01-16T01:46:06.178Z,85.80
2018-01-16T01:48:33.818Z,85.80
2018-01-16T01:51:01.469Z,85.90
2018-01-16T01:53:29.064Z,86.70
2018-01-16T01:55:56.617Z,86.60
2018-01-16T01:58:24.207Z,86.80
2018-01-16T02:00:51.976Z,86.50
2018-01-16T02:03:19.533Z,85.60
2018-01-16T02:05:47.888Z,85.10
2018-01-16T02:08:15.489Z,84.70
2018-01-16T02:10:43.046Z,84.40
2018-01-16T02:13:10.593Z,84.60
2018-01-16T02:15:38.203Z,85.10
2018-01-16T02:18:06.570Z,84.80
2018-01-16T02:20:34.892Z,85.70
2018-01-16T02:23:02.501Z,84.90
2018-01-16T02:25:30.066Z,85.20
2018-01-16T02:27:57.683Z,85.40
2018-01-16T02:30:25.253Z,85.80
2018-01-16T02:32:52.793Z,86.10
2018-01-16T02:35:20.349Z,86.50
2018-01-16T02:37:48.225Z,86.30
2018-01-16T02:40:15.777Z,85.90
2018-01-16T02:42:43.341Z,85.30
2018-01-16T02:45:10.902Z,85.10
2018-01-16T02:47:38.482Z,85.80
2018-01-16T02:50:06.026Z,85.70
2018-01-16T02:52:34.328Z,85.10
2018-01-16T02:55:01.877Z,84.90
2018-01-16T02:57:29.486Z,84.10
2018-01-16T02:59:57.358Z,84.00
2018-01-16T03:02:25.740Z,83.20
2018-01-16T03:04:53.333Z,83.20
2018-01-16T03:07:20.970Z,83.30
2018-01-16T03:09:48.546Z,82.40
2018-01-16T03:12:16.889Z,82.60
2018-01-16T03:14:44.499Z,82.50
2018-01-16T03:17:12.045Z,81.90
2018-01-16T03:19:40.378Z,81.50
2018-01-16T03:22:07.938Z,81.40
2018-01-16T03:24:35.532Z,82.00
2018-01-16T03:27:03.872Z,81.40
2018-01-16T03:29:31.426Z,81.40
2018-01-16T03:31:59.100Z,81.10
2018-01-16T03:34:26.676Z,80.90
2018-01-16T03:36:54.238Z,81.80
2018-01-16T03:39:33.657Z,81.90
2018-01-16T03:42:01.266Z,81.90
2018-01-16T03:44:28.824Z,80.80
2018-01-16T03:46:56.396Z,81.10
2018-01-16T03:49:46.838Z,82.00
2018-01-16T03:52:14.393Z,82.00
2018-01-16T03:54:41.951Z,81.70
2018-01-16T03:57:09.621Z,81.40
2018-01-16T03:59:37.179Z,81.10
2018-01-16T04:02:04.743Z,80.50
2018-01-16T04:04:32.338Z,80.30
2018-01-16T04:06:59.897Z,80.00
2018-01-16T04:09:29.172Z,80.40
2018-01-16T04:11:56.751Z,80.50
2018-01-16T04:14:24.324Z,80.10
2018-01-16T04:16:51.872Z,80.30
2018-01-16T04:19:19.422Z,80.60
2018-01-16T04:21:47.026Z,80.60
2018-01-16T04:24:14.594Z,80.70
2018-01-16T04:26:42.132Z,80.10
2018-01-16T04:29:09.841Z,80.40
2018-01-16T04:31:37.425Z,79.10
2018-01-16T04:34:04.993Z,79.30
2018-01-16T04:36:32.757Z,79.00
2018-01-16T04:39:00.297Z,78.70
2018-01-16T04:41:27.865Z,79.00
2018-01-16T04:43:55.429Z,79.00
2018-01-16T04:46:22.996Z,79.20
2018-01-16T04:48:50.574Z,79.80
2018-01-16T04:51:18.263Z,79.70
2018-01-16T04:53:45.821Z,79.80
2018-01-16T04:56:13.373Z,79.70
2018-01-16T04:58:40.917Z,80.50
2018-01-16T05:01:08.479Z,80.50
2018-01-16T05:03:36.045Z,80.40
2018-01-16T05:06:03.614Z,80.50
2018-01-16T05:08:31.164Z,80.70
2018-01-16T05:10:58.770Z,80.70
2018-01-16T05:13:26.335Z,81.40
2018-01-16T05:15:53.900Z,81.90
2018-01-16T05:18:22.244Z,82.90
2018-01-16T05:20:49.781Z,82.90
2018-01-16T05:23:17.425Z,83.00
2018-01-16T05:25:44.982Z,83.00
2018-01-16T05:28:13.299Z,83.10
2018-01-16T05:30:40.848Z,83.00
2018-01-16T05:33:08.392Z,82.90
2018-01-16T05:35:35.967Z,83.30
2018-01-16T05:38:03.543Z,83.50
2018-01-16T05:40:31.217Z,83.20
2018-01-16T05:42:58.806Z,84.00
2018-01-16T05:45:26.360Z,83.20
2018-01-16T05:47:54.132Z,82.60
2018-01-16T05:50:21.683Z,82.50
2018-01-16T05:52:49.223Z,82.50
2018-01-16T05:55:16.871Z,82.50
2018-01-16T05:57:44.496Z,82.60
2018-01-16T06:00:12.897Z,82.70
2018-01-16T06:02:40.485Z,82.70
2018-01-16T06:05:08.039Z,82.50
2018-01-16T06:07:35.646Z,83.10
2018-01-16T06:10:03.957Z,82.20
2018-01-16T06:12:32.366Z,82.00
2018-01-16T06:14:59.947Z,82.00
2018-01-16T06:17:27.507Z,81.50
2018-01-16T06:19:55.931Z,81.40
2018-01-16T06:22:24.257Z,81.20
2018-01-16T06:24:51.820Z,81.10
2018-01-16T06:27:19.521Z,81.30
2018-01-16T06:29:47.086Z,80.50
2018-01-16T06:32:14.668Z,79.60
2018-01-16T06:34:43.012Z,78.80
2018-01-16T06:37:10.581Z,78.70
2018-01-16T06:39:38.917Z,78.90
2018-01-16T06:42:06.481Z,78.90
2018-01-16T06:44:34.041Z,78.10
2018-01-16T06:47:01.608Z,78.70
2018-01-16T06:49:29.193Z,79.00
2018-01-16T06:51:56.777Z,79.10
2018-01-16T06:54:24.420Z,79.40
2018-01-16T06:56:52.200Z,80.20
2018-01-16T06:59:19.856Z,80.00
2018-01-16T07:01:47.365Z,80.40
2018-01-16T07:04:14.949Z,80.50
2018-01-16T07:06:42.548Z,80.10
2018-01-16T07:09:10.130Z,80.90
2018-01-16T07:11:38.450Z,81.30
2018-01-16T07:14:06.034Z,81.30
2018-01-16T07:16:33.577Z,81.70
2018-01-16T07:19:01.152Z,81.90
2018-01-16T07:21:28.725Z,81.70
2018-01-16T07:23:56.298Z,82.00
2018-01-16T07:26:23.841Z,82.10
2018-01-16T07:28:51.399Z,82.00
2018-01-16T07:31:18.984Z,81.70
2018-01-16T07:33:46.549Z,82.00
2018-01-16T07:36:14.129Z,81.90
2018-01-16T07:38:42.465Z,82.50
2018-01-16T07:41:10.016Z,82.50
2018-01-16T07:43:37.782Z,83.00
2018-01-16T07:46:05.341Z,82.90
2018-01-16T07:48:32.937Z,82.40
2018-01-16T07:51:00.501Z,81.40
2018-01-16T07:53:28.077Z,81.20
2018-01-16T07:55:56.405Z,81.60
2018-01-16T07:58:24.013Z,81.60
2018-01-16T08:00:51.598Z,80.80
2018-01-16T08:03:19.931Z,79.10
2018-01-16T08:05:47.495Z,79.10
2018-01-16T08:08:15.050Z,79.00
2018-01-16T08:10:42.617Z,78.20
2018-01-16T08:13:10.295Z,78.30
2018-01-16T08:15:37.845Z,78.70
2018-01-16T08:18:05.433Z,78.70
2018-01-16T08:20:33.805Z,78.90
2018-01-16T08:23:02.161Z,79.20
2018-01-16T08:25:29.709Z,79.20
2018-01-16T08:27:57.268Z,79.50
2018-01-16T08:30:24.880Z,79.50
2018-01-16T08:32:53.225Z,79.50
2018-01-16T08:35:20.784Z,79.40
2018-01-16T08:37:48.344Z,79.60
2018-01-16T08:40:15.922Z,79.50
2018-01-16T08:42:43.483Z,79.70
2018-01-16T08:45:11.061Z,79.10
2018-01-16T08:47:38.638Z,79.00
2018-01-16T08:50:07.009Z,78.70
2018-01-16T08:52:34.601Z,78.70
2018-01-16T08:55:02.215Z,77.50
2018-01-16T08:57:29.884Z,78.00
2018-01-16T08:59:58.193Z,77.80
2018-01-16T09:02:25.754Z,77.90
2018-01-16T09:04:54.093Z,77.70
2018-01-16T09:07:21.624Z,77.50
2018-01-16T09:09:49.233Z,77.30
2018-01-16T09:12:16.811Z,77.80
2018-01-16T09:14:45.125Z,76.70
2018-01-16T09:17:12.697Z,76.70
2018-01-16T09:19:40.272Z,76.10
2018-01-16T09:22:07.855Z,75.80
2018-01-16T09:24:35.412Z,76.20
2018-01-16T09:27:03.059Z,75.80
2018-01-16T09:29:30.870Z,75.50
2018-01-16T09:31:59.216Z,75.30
2018-01-16T09:34:26.798Z,75.30
2018-01-16T09:36:54.420Z,75.30
2018-01-16T09:39:22.010Z,74.90
2018-01-16T09:41:49.571Z,74.70
2018-01-16T09:44:17.139Z,74.20
2018-01-16T09:46:44.688Z,74.50
2018-01-16T09:49:12.254Z,74.60
2018-01-16T09:51:39.993Z,75.20
2018-01-16T09:54:07.549Z,73.90
2018-01-16T09:56:35.196Z,71.80
2018-01-16T09:59:02.805Z,72.10
2018-01-16T10:01:30.345Z,71.50
2018-01-16T10:03:57.935Z,72.20
2018-01-16T10:06:25.547Z,72.50
2018-01-16T10:08:54.063Z,73.80
2018-01-16T10:11:21.663Z,73.70
2018-01-16T10:13:50.032Z,73.20
2018-01-16T10:16:17.604Z,73.10
2018-01-16T10:18:45.953Z,73.30
2018-01-16T10:21:13.514Z,73.20
2018-01-16T10:23:41.073Z,74.30
2018-01-16T10:26:08.642Z,74.30
2018-01-16T10:28:36.248Z,74.40
2018-01-16T10:31:03.826Z,73.80
2018-01-16T10:33:31.397Z,72.80
2018-01-16T10:35:58.982Z,72.70
2018-01-16T10:38:26.716Z,71.40
2018-01-16T10:40:54.310Z,70.60
2018-01-16T10:43:21.870Z,69.30
2018-01-16T10:45:49.453Z,69.80
2018-01-16T10:48:17.003Z,68.50
2018-01-16T10:50:44.557Z,68.40
2018-01-16T10:53:12.128Z,71.70
2018-01-16T10:55:39.671Z,73.00
2018-01-16T10:58:07.253Z,76.10
2018-01-16T11:00:34.807Z,77.50
2018-01-16T11:03:02.401Z,78.10
2018-01-16T11:05:30.736Z,80.60
2018-01-16T11:07:58.313Z,80.60
2018-01-16T11:10:26.049Z,79.30
2018-01-16T11:12:53.765Z,80.40
2018-01-16T11:15:21.355Z,81.10
2018-01-16T11:17:49.769Z,79.60
2018-01-16T11:20:17.397Z,79.60
2018-01-16T11:22:45.037Z,80.10
2018-01-16T11:25:12.650Z,80.60
2018-01-16T11:27:40.226Z,81.00
2018-01-16T11:30:07.782Z,80.50
2018-01-16T11:32:35.334Z,80.20
2018-01-16T11:35:02.877Z,78.30
2018-01-16T11:37:30.518Z,77.90
2018-01-16T11:39:58.841Z,76.90
2018-01-16T11:42:26.402Z,76.90
2018-01-16T11:44:54.050Z,76.00
2018-01-16T11:47:21.610Z,75.80
2018-01-16T11:49:49.215Z,76.90
2018-01-16T11:52:16.793Z,76.70
2018-01-16T11:54:44.358Z,76.80
2018-01-16T11:57:12.674Z,76.10
2018-01-16T11:59:40.249Z,76.00
2018-01-16T12:02:07.797Z,76.50
2018-01-16T12:04:35.418Z,77.70
2018-01-16T12:07:03.077Z,77.80
2018-01-16T12:09:30.690Z,79.10
2018-01-16T12:11:58.300Z,81.60
2018-01-16T12:14:26.650Z,82.80
2018-01-16T12:16:54.194Z,82.80
2018-01-16T12:19:21.744Z,82.70
2018-01-16T12:21:49.397Z,82.70
2018-01-16T12:24:17.808Z,82.90
2018-01-16T12:26:45.428Z,82.90
2018-01-16T12:29:13.854Z,85.40
2018-01-16T12:31:41.526Z,85.40
2018-01-16T12:34:09.081Z,86.20
2018-01-16T12:36:36.638Z,86.00
2018-01-16T12:39:04.228Z,85.50
2018-01-16T12:41:31.797Z,84.70
2018-01-16T12:43:59.372Z,84.00
2018-01-16T12:46:26.930Z,84.20
2018-01-16T12:48:54.564Z,84.10
2018-01-16T12:51:22.178Z,83.70
2018-01-16T12:53:50.485Z,82.00
2018-01-16T12:56:18.033Z,82.00
2018-01-16T12:58:45.624Z,82.20
2018-01-16T13:01:13.207Z,81.70
2018-01-16T13:03:40.837Z,82.10
2018-01-16T13:06:08.424Z,82.50
2018-01-16T13:08:36.022Z,81.80
2018-01-16T13:11:04.336Z,82.40
2018-01-16T13:13:31.906Z,82.40
2018-01-16T13:15:59.669Z,81.70
2018-01-16T13:18:27.292Z,81.20
2018-01-16T13:20:56.270Z,80.70
2018-01-16T13:23:23.926Z,80.60
2018-01-16T13:25:51.488Z,81.30
2018-01-16T13:28:19.059Z,82.10
2018-01-16T13:30:46.628Z,82.00
2018-01-16T13:33:14.951Z,83.10
2018-01-16T13:35:42.529Z,83.10
2018-01-16T13:38:10.118Z,84.00
2018-01-16T13:40:37.790Z,84.00
2018-01-16T13:43:05.637Z,84.70
2018-01-16T13:45:33.173Z,85.50
2018-01-16T13:48:00.935Z,85.60
2018-01-16T13:50:28.509Z,86.40
2018-01-16T13:52:56.022Z,86.20
2018-01-16T13:55:24.350Z,85.60
2018-01-16T13:57:52.042Z,85.60
2018-01-16T14:00:19.682Z,85.00
2018-01-16T14:02:47.225Z,85.30
2018-01-16T14:05:14.776Z,85.00
2018-01-16T14:07:42.321Z,84.10
2018-01-16T14:10:09.890Z,83.70
2018-01-16T14:12:37.666Z,83.10
2018-01-16T14:15:05.233Z,83.00
2018-01-16T14:17:32.832Z,85.10
2018-01-16T14:20:00.406Z,84.50
2018-01-16T14:22:28.759Z,82.00
2018-01-16T14:24:56.431Z,82.00
2018-01-16T14:27:23.998Z,81.90
2018-01-16T14:29:51.577Z,81.60
2018-01-16T14:32:19.301Z,79.90
2018-01-16T14:34:46.888Z,75.50
2018-01-16T14:37:14.447Z,74.60
2018-01-16T14:39:42.117Z,76.30
2018-01-16T14:42:09.701Z,75.80
2018-01-16T14:44:37.371Z,76.50
2018-01-16T14:47:05.704Z,78.40
2018-01-16T14:49:33.270Z,78.40
2018-01-16T14:52:00.824Z,78.80
2018-01-16T14:54:28.385Z,79.90
2018-01-16T14:56:56.033Z,80.60
2018-01-16T14:59:23.658Z,81.20
2018-01-16T15:01:51.250Z,77.20
2018-01-16T15:04:18.860Z,77.40
2018-01-16T15:06:46.437Z,80.10
2018-01-16T15:09:13.997Z,81.80
2018-01-16T15:11:41.573Z,83.40
2018-01-16T15:14:09.905Z,83.30
2018-01-16T15:16:37.502Z,83.30
2018-01-16T15:19:05.160Z,83.40
2018-01-16T15:21:32.797Z,84.00
2018-01-16T15:24:00.382Z,84.60
2018-01-16T15:26:28.714Z,84.00
2018-01-16T15:28:56.587Z,84.20
2018-01-16T15:31:24.201Z,83.80
2018-01-16T15:33:52.558Z,85.00
2018-01-16T15:36:20.898Z,85.50
2018-01-16T15:38:48.665Z,85.50
2018-01-16T15:41:16.246Z,85.40
2018-01-16T15:43:43.854Z,85.20
2018-01-16T15:46:12.381Z,85.20
2018-01-16T15:48:39.951Z,85.20
2018-01-16T15:51:07.533Z,83.60
2018-01-16T15:53:35.110Z,83.60
2018-01-16T15:56:02.678Z,83.50
2018-01-16T15:58:30.822Z,84.40
2018-01-16T16:00:58.403Z,84.10
2018-01-16T16:03:26.002Z,84.00
2018-01-16T16:05:53.594Z,85.00
2018-01-16T16:08:21.194Z,85.10
2018-01-16T16:10:48.904Z,84.80
2018-01-16T16:13:16.453Z,85.70
2018-01-16T16:15:44.152Z,84.80
2018-01-16T16:18:11.732Z,85.10
2018-01-16T16:20:40.359Z,85.20
2018-01-16T16:23:08.729Z,85.00
2018-01-16T16:25:37.054Z,85.30
2018-01-16T16:28:04.671Z,85.20
2018-01-16T16:30:33.006Z,85.40
2018-01-16T16:33:00.582Z,85.30
2018-01-16T16:35:28.145Z,85.10
2018-01-16T16:37:55.766Z,84.80
2018-01-16T16:40:23.349Z,84.80
2018-01-16T16:42:51.083Z,84.80
2018-01-16T16:45:18.730Z,85.10
2018-01-16T16:47:47.089Z,85.50
2018-01-16T16:50:14.701Z,85.50
2018-01-16T16:52:42.276Z,86.10
2018-01-16T16:55:09.846Z,86.30
2018-01-16T16:57:37.574Z,86.60
2018-01-16T17:00:05.139Z,87.50
2018-01-16T17:02:32.729Z,86.70
2018-01-16T17:05:00.315Z,86.90
2018-01-16T17:07:28.017Z,87.00
2018-01-16T17:09:55.639Z,87.40
2018-01-16T17:12:23.598Z,87.70
2018-01-16T17:14:51.258Z,87.70
2018-01-16T17:17:18.863Z,88.00
2018-01-16T17:19:54.940Z,87.40
2018-01-16T17:22:22.558Z,87.30
2018-01-16T17:24:50.930Z,87.10
2018-01-16T17:27:18.773Z,87.10
2018-01-16T17:29:46.385Z,86.30
2018-01-16T17:32:13.981Z,85.70
2018-01-16T17:34:41.640Z,85.90
2018-01-16T17:37:10.017Z,84.20
2018-01-16T17:39:38.396Z,84.80
2018-01-16T17:42:05.970Z,84.70
2018-01-16T17:44:33.548Z,84.10
2018-01-16T17:47:01.123Z,85.00
2018-01-16T17:49:28.715Z,85.60
2018-01-16T17:51:56.342Z,85.90
2018-01-16T17:54:23.903Z,85.80
2018-01-16T17:56:51.464Z,85.60
2018-01-16T17:59:19.136Z,85.80
2018-01-16T18:01:46.728Z,84.70
2018-01-16T18:04:14.368Z,83.80
2018-01-16T18:06:41.963Z,84.30
2018-01-16T18:09:10.309Z,84.90
2018-01-16T18:11:37.858Z,84.90
2018-01-16T18:14:05.475Z,84.80
2018-01-16T18:16:33.873Z,84.80
2018-01-16T18:19:01.512Z,84.80
2018-01-16T18:21:29.057Z,84.80
2018-01-16T18:23:56.618Z,84.90
2018-01-16T18:26:24.199Z,85.20
2018-01-16T18:28:52.546Z,85.40
2018-01-16T18:31:20.116Z,85.30
2018-01-16T18:33:47.677Z,85.30
2018-01-16T18:36:15.266Z,85.10
2018-01-16T18:38:43.614Z,84.30
2018-01-16T18:41:11.185Z,84.30
2018-01-16T18:43:38.787Z,84.40
2018-01-16T18:46:06.381Z,84.30
2018-01-16T18:48:34.007Z,84.90
2018-01-16T18:51:01.643Z,84.70
2018-01-16T18:53:29.217Z,84.80
2018-01-16T18:55:57.586Z,85.50
2018-01-16T18:58:25.176Z,85.40
2018-01-16T19:00:52.766Z,86.30
2018-01-16T19:03:20.379Z,86.40
2018-01-16T19:05:48.726Z,86.20
2018-01-16T19:08:16.362Z,86.20
2018-01-16T19:10:43.937Z,86.30
2018-01-16T19:13:11.534Z,86.60
2018-01-16T19:15:39.098Z,86.60
2018-01-16T19:18:06.666Z,86.70
2018-01-16T19:20:35.126Z,87.10
2018-01-16T19:23:02.806Z,87.10
2018-01-16T19:25:30.387Z,87.00
2018-01-16T19:27:58.722Z,87.20
2018-01-16T19:30:26.367Z,87.10
2018-01-16T19:32:53.934Z,87.40
2018-01-16T19:35:21.510Z,87.30
2018-01-16T19:37:49.291Z,87.60
2018-01-16T19:40:16.970Z,87.80
2018-01-16T19:42:45.305Z,87.10
2018-01-16T19:45:12.890Z,87.10
2018-01-16T19:47:41.389Z,85.90
2018-01-16T19:50:08.950Z,85.90
2018-01-16T19:52:36.570Z,85.70
2018-01-16T19:55:04.175Z,85.40
2018-01-16T19:57:32.538Z,84.20
2018-01-16T20:00:00.113Z,84.70
2018-01-16T20:02:27.830Z,84.20
2018-01-16T20:04:55.434Z,84.30
2018-01-16T20:07:23.004Z,84.50
2018-01-16T20:09:50.753Z,85.00
2018-01-16T20:12:18.325Z,85.60
2018-01-16T20:14:45.977Z,85.60
2018-01-16T20:17:13.551Z,85.70
2018-01-16T20:19:41.186Z,85.60
2018-01-16T20:22:08.891Z,85.40
2018-01-16T20:24:37.242Z,85.10
2018-01-16T20:27:04.864Z,85.10
2018-01-16T20:29:32.467Z,85.40
2018-01-16T20:32:00.028Z,86.00
2018-01-16T20:34:27.636Z,86.60
2018-01-16T20:36:55.319Z,87.30
2018-01-16T20:39:22.894Z,87.70
2018-01-16T20:41:50.543Z,87.10
2018-01-16T20:44:18.251Z,87.00
2018-01-16T20:46:45.894Z,86.90
2018-01-16T20:49:13.513Z,86.90
2018-01-16T20:51:41.178Z,86.80
2018-01-16T20:54:08.779Z,86.70
2018-01-16T20:56:36.437Z,86.70
2018-01-16T20:59:04.146Z,86.60
2018-01-16T21:01:31.805Z,86.40
2018-01-16T21:04:00.594Z,86.40
2018-01-16T21:06:28.183Z,86.40
2018-01-16T21:08:57.554Z,86.50
2018-01-16T21:11:25.189Z,86.50
2018-01-16T21:13:52.780Z,86.60
2018-01-16T21:16:20.436Z,86.50
2018-01-16T21:18:48.181Z,86.50
2018-01-16T21:21:15.779Z,86.50
2018-01-16T21:23:45.187Z,86.10
2018-01-16T21:26:12.772Z,86.10
2018-01-16T21:28:40.474Z,86.90
2018-01-16T21:31:17.948Z,86.20
2018-01-16T21:33:45.526Z,86.10
2018-01-16T21:36:13.234Z,86.00
2018-01-16T21:38:41.618Z,85.90
2018-01-16T21:41:09.165Z,85.80
2018-01-16T21:43:37.522Z,85.30
2018-01-16T21:46:05.100Z,85.20
2018-01-16T21:48:32.686Z,85.30
2018-01-16T21:51:01.043Z,84.60
2018-01-16T21:53:29.405Z,85.10
2018-01-16T21:55:56.945Z,85.10
2018-01-16T21:58:24.553Z,85.60
2018-01-16T22:00:52.181Z,85.80
2018-01-16T22:03:19.772Z,86.20
2018-01-16T22:05:47.433Z,86.00
2018-01-16T22:08:14.976Z,85.80
2018-01-16T22:10:43.314Z,85.80
2018-01-16T22:13:10.937Z,85.70
2018-01-16T22:15:38.453Z,85.70
2018-01-16T22:18:06.019Z,85.60
2018-01-16T22:20:33.613Z,85.50
2018-01-16T22:23:01.207Z,85.80
2018-01-16T22:25:28.913Z,85.70
2018-01-16T22:27:56.500Z,85.60
2018-01-16T22:30:24.143Z,85.60
2018-01-16T22:32:51.706Z,85.50
2018-01-16T22:35:19.289Z,85.10
2018-01-16T22:37:46.954Z,85.10
2018-01-16T22:40:14.539Z,85.30
2018-01-16T22:42:42.103Z,85.30
2018-01-16T22:45:09.681Z,85.10
2018-01-16T22:47:37.275Z,84.60
2018-01-16T22:50:04.821Z,84.30
2018-01-16T22:52:32.402Z,83.70
2018-01-16T22:55:00.766Z,83.50
2018-01-16T22:57:28.410Z,83.40
2018-01-16T22:59:56.011Z,83.30
2018-01-16T23:02:23.617Z,83.30
2018-01-16T23:04:51.182Z,83.30
2018-01-16T23:07:18.745Z,82.50
2018-01-16T23:09:46.314Z,82.60
2018-01-16T23:12:13.868Z,82.30
2018-01-16T23:14:41.529Z,81.90
2018-01-16T23:17:09.153Z,81.60
2018-01-16T23:19:37.527Z,81.80
2018-01-16T23:22:05.066Z,81.70
2018-01-16T23:24:32.630Z,81.70
2018-01-16T23:27:00.385Z,81.80
2018-01-16T23:29:27.938Z,82.20
2018-01-16T23:31:55.512Z,82.30
2018-01-16T23:34:23.493Z,82.50
2018-01-16T23:36:51.873Z,82.40
2018-01-16T23:39:19.483Z,82.70
2018-01-16T23:41:47.949Z,83.40
2018-01-16T23:44:16.283Z,83.50
2018-01-16T23:46:43.826Z,83.50
2018-01-16T23:49:11.489Z,83.30
2018-01-16T23:51:39.062Z,83.20
2018-01-16T23:54:06.638Z,82.70
2018-01-16T23:56:34.210Z,82.50
2018-01-16T23:59:01.808Z,82.70
